createdAt,value
2022-09-26T00:00:08.884Z,22.1
2022-09-26T00:15:02.280Z,22.1
2022-09-26T00:30:05.692Z,22.1
2022-09-26T00:45:03.441Z,22.1
2022-09-26T01:00:03.961Z,22.1
2022-09-26T01:15:04.178Z,22.1
2022-09-26T01:30:04.965Z,22.1
2022-09-26T01:45:02.726Z,22.1
2022-09-26T02:00:04.096Z,22.1
2022-09-26T02:15:02.242Z,22.1
2022-09-26T02:30:06.769Z,22.1
2022-09-26T02:45:03.459Z,22.1
2022-09-26T03:00:08.374Z,22.0
2022-09-26T03:15:02.154Z,22.0
2022-09-26T03:30:04.195Z,22.0
2022-09-26T03:45:03.442Z,22.0
2022-09-26T04:00:09.752Z,22
2022-09-26T04:15:02.652Z,22
2022-09-26T04:30:06.591Z,22
2022-09-26T04:45:02.325Z,22.0
2022-09-26T05:00:07.299Z,22
2022-09-26T05:15:04.220Z,22
2022-09-26T05:30:05.338Z,22
2022-09-26T05:45:03.381Z,22.1
2022-09-26T06:00:04.788Z,22.2
2022-09-26T06:15:02.056Z,22.3
2022-09-26T06:30:07.055Z,22.4
2022-09-26T06:45:06.631Z,22.5
2022-09-26T07:00:06.527Z,22.5
2022-09-26T07:15:05.595Z,22.6
2022-09-26T07:30:05.879Z,22.7
2022-09-26T07:45:24.464Z,22.8
2022-09-26T08:00:05.615Z,22.8
2022-09-26T08:15:02.325Z,22.9
2022-09-26T08:30:08.261Z,22.9
2022-09-26T08:45:03.135Z,23.1
2022-09-26T09:00:09.541Z,23.1
2022-09-26T09:15:23.890Z,23.2
2022-09-26T09:30:15.661Z,23.3
2022-09-26T09:45:05.004Z,23.4
2022-09-26T10:00:06.112Z,23.4
2022-09-26T10:15:06.669Z,23.4
2022-09-26T10:30:05.673Z,23.5
2022-09-26T10:45:02.266Z,23.5
2022-09-26T11:00:08.803Z,23.5
2022-09-26T11:15:03.781Z,23.5
2022-09-26T11:30:08.450Z,23.5
2022-09-26T11:45:02.450Z,23.6
2022-09-26T12:00:12.168Z,23.6
2022-09-26T12:15:03.390Z,23.7
2022-09-26T12:30:08.915Z,23.7
2022-09-26T12:45:02.394Z,23.8
2022-09-26T13:00:08.298Z,23.8
2022-09-26T13:15:04.448Z,23.9
2022-09-26T13:30:09.896Z,23.9
2022-09-26T13:45:04.227Z,23.9
2022-09-26T14:00:10.156Z,24.0
2022-09-26T14:15:03.002Z,24
2022-09-26T14:30:10.854Z,24
2022-09-26T14:45:03.962Z,24
2022-09-26T15:00:08.370Z,23.9
2022-09-26T15:15:05.450Z,23.9
2022-09-26T15:30:11.421Z,23.9
2022-09-26T15:45:04.383Z,23.9
2022-09-26T16:00:10.166Z,23.8
2022-09-26T16:15:04.673Z,23.8
2022-09-26T16:30:06.068Z,23.7
2022-09-26T16:45:04.585Z,23.6
2022-09-26T17:00:06.416Z,23.5
2022-09-26T17:15:04.521Z,23.5
2022-09-26T17:30:04.798Z,23.4
2022-09-26T17:45:04.581Z,23.4
2022-09-26T18:00:10.104Z,23.3
2022-09-26T18:15:03.294Z,23.3
2022-09-26T18:30:06.525Z,23.2
2022-09-26T18:45:03.996Z,23.2
2022-09-26T19:00:10.699Z,23.1
2022-09-26T19:15:03.207Z,23.1
2022-09-26T19:30:09.484Z,23.1
2022-09-26T19:45:04.211Z,23.0
2022-09-26T20:00:07.932Z,23
2022-09-26T20:15:02.694Z,22.9
2022-09-26T20:30:05.934Z,22.9
2022-09-26T20:45:04.476Z,22.9
2022-09-26T21:00:09.473Z,22.8
2022-09-26T21:15:03.425Z,22.8
2022-09-26T21:30:04.839Z,22.8
2022-09-26T21:45:02.324Z,22.7
2022-09-26T22:00:05.031Z,22.7
2022-09-26T22:15:05.789Z,22.7
2022-09-26T22:30:06.607Z,22.7
2022-09-26T22:45:02.893Z,22.6
2022-09-26T23:00:05.468Z,22.6
2022-09-26T23:15:02.509Z,22.6
2022-09-26T23:30:08.499Z,22.6
2022-09-26T23:45:03.990Z,22.6
